sensor_id;sensor_type;location;lat;lon;timestamp;P1;durP1;ratioP1;P2;durP2;ratioP2
56051;SDS011;41919;42.648;23.384;2022-07-22T00:01:02;5.43;;;3.20;;
56051;SDS011;41919;42.648;23.384;2022-07-22T00:03:27;7.15;;;3.38;;
56051;SDS011;41919;42.648;23.384;2022-07-22T00:05:53;4.03;;;3.22;;
56051;SDS011;41919;42.648;23.384;2022-07-22T00:08:18;5.82;;;3.60;;
56051;SDS011;41919;42.648;23.384;2022-07-22T00:10:44;4.13;;;3.33;;
56051;SDS011;41919;42.648;23.384;2022-07-22T00:13:10;3.63;;;2.83;;
56051;SDS011;41919;42.648;23.384;2022-07-22T00:15:35;6.13;;;2.92;;
56051;SDS011;41919;42.648;23.384;2022-07-22T00:18:01;4.50;;;3.10;;
56051;SDS011;41919;42.648;23.384;2022-07-22T00:20:26;4.10;;;3.08;;
56051;SDS011;41919;42.648;23.384;2022-07-22T00:22:52;3.75;;;3.25;;
56051;SDS011;41919;42.648;23.384;2022-07-22T00:25:17;2.83;;;2.63;;
56051;SDS011;41919;42.648;23.384;2022-07-22T00:27:43;4.60;;;3.28;;
56051;SDS011;41919;42.648;23.384;2022-07-22T00:30:08;6.13;;;3.00;;
56051;SDS011;41919;42.648;23.384;2022-07-22T00:32:34;5.85;;;3.08;;
56051;SDS011;41919;42.648;23.384;2022-07-22T00:35:00;4.20;;;3.38;;
56051;SDS011;41919;42.648;23.384;2022-07-22T00:37:25;6.80;;;3.20;;
56051;SDS011;41919;42.648;23.384;2022-07-22T00:39:51;4.13;;;3.45;;
56051;SDS011;41919;42.648;23.384;2022-07-22T00:42:17;4.00;;;3.33;;
56051;SDS011;41919;42.648;23.384;2022-07-22T00:44:43;4.28;;;3.78;;
56051;SDS011;41919;42.648;23.384;2022-07-22T00:47:09;4.32;;;3.40;;
56051;SDS011;41919;42.648;23.384;2022-07-22T00:49:35;4.63;;;3.33;;
56051;SDS011;41919;42.648;23.384;2022-07-22T00:52:00;4.88;;;3.10;;
56051;SDS011;41919;42.648;23.384;2022-07-22T00:54:26;4.13;;;3.28;;
56051;SDS011;41919;42.648;23.384;2022-07-22T00:56:52;4.32;;;3.40;;
56051;SDS011;41919;42.648;23.384;2022-07-22T00:59:17;4.90;;;3.22;;
56051;SDS011;41919;42.648;23.384;2022-07-22T01:01:43;5.40;;;3.30;;
56051;SDS011;41919;42.648;23.384;2022-07-22T01:04:08;3.20;;;2.90;;
56051;SDS011;41919;42.648;23.384;2022-07-22T01:06:34;4.97;;;3.55;;
56051;SDS011;41919;42.648;23.384;2022-07-22T01:08:59;5.32;;;3.30;;
56051;SDS011;41919;42.648;23.384;2022-07-22T01:11:25;5.05;;;3.50;;
56051;SDS011;41919;42.648;23.384;2022-07-22T01:13:51;6.95;;;3.63;;
56051;SDS011;41919;42.648;23.384;2022-07-22T01:16:18;6.80;;;3.65;;
56051;SDS011;41919;42.648;23.384;2022-07-22T01:18:44;5.40;;;3.72;;
56051;SDS011;41919;42.648;23.384;2022-07-22T01:21:10;5.03;;;3.58;;
56051;SDS011;41919;42.648;23.384;2022-07-22T01:23:37;6.72;;;3.58;;
56051;SDS011;41919;42.648;23.384;2022-07-22T01:26:03;5.88;;;3.70;;
56051;SDS011;41919;42.648;23.384;2022-07-22T01:28:29;4.53;;;3.65;;
56051;SDS011;41919;42.648;23.384;2022-07-22T01:30:55;5.38;;;4.03;;
56051;SDS011;41919;42.648;23.384;2022-07-22T01:33:21;5.53;;;3.72;;
56051;SDS011;41919;42.648;23.384;2022-07-22T01:35:47;5.80;;;3.60;;
56051;SDS011;41919;42.648;23.384;2022-07-22T01:38:13;5.32;;;3.40;;
56051;SDS011;41919;42.648;23.384;2022-07-22T01:40:40;3.92;;;3.50;;
56051;SDS011;41919;42.648;23.384;2022-07-22T01:43:06;3.58;;;3.28;;
56051;SDS011;41919;42.648;23.384;2022-07-22T01:45:32;3.88;;;3.45;;
56051;SDS011;41919;42.648;23.384;2022-07-22T01:47:58;6.70;;;3.75;;
56051;SDS011;41919;42.648;23.384;2022-07-22T01:50:23;6.53;;;3.50;;
56051;SDS011;41919;42.648;23.384;2022-07-22T01:52:49;4.32;;;3.47;;
56051;SDS011;41919;42.648;23.384;2022-07-22T01:55:14;4.13;;;3.40;;
56051;SDS011;41919;42.648;23.384;2022-07-22T01:57:40;5.55;;;3.50;;
56051;SDS011;41919;42.648;23.384;2022-07-22T02:00:06;4.07;;;3.33;;
56051;SDS011;41919;42.648;23.384;2022-07-22T02:02:33;5.72;;;4.28;;
56051;SDS011;41919;42.648;23.384;2022-07-22T02:04:59;4.80;;;3.47;;
56051;SDS011;41919;42.648;23.384;2022-07-22T02:07:24;5.47;;;4.10;;
56051;SDS011;41919;42.648;23.384;2022-07-22T02:09:51;5.90;;;3.88;;
56051;SDS011;41919;42.648;23.384;2022-07-22T02:12:19;5.55;;;3.65;;
56051;SDS011;41919;42.648;23.384;2022-07-22T02:14:45;4.50;;;3.53;;
56051;SDS011;41919;42.648;23.384;2022-07-22T02:17:11;5.38;;;4.05;;
56051;SDS011;41919;42.648;23.384;2022-07-22T02:19:38;7.30;;;4.10;;
56051;SDS011;41919;42.648;23.384;2022-07-22T02:22:04;7.75;;;4.22;;
56051;SDS011;41919;42.648;23.384;2022-07-22T02:24:30;7.90;;;3.90;;
56051;SDS011;41919;42.648;23.384;2022-07-22T02:26:55;5.22;;;3.60;;
56051;SDS011;41919;42.648;23.384;2022-07-22T02:29:21;4.15;;;3.58;;
56051;SDS011;41919;42.648;23.384;2022-07-22T02:31:46;5.78;;;4.47;;
56051;SDS011;41919;42.648;23.384;2022-07-22T02:34:12;4.32;;;3.92;;
56051;SDS011;41919;42.648;23.384;2022-07-22T02:36:37;5.75;;;4.60;;
56051;SDS011;41919;42.648;23.384;2022-07-22T02:39:03;5.72;;;4.15;;
56051;SDS011;41919;42.648;23.384;2022-07-22T02:41:29;6.13;;;3.88;;
56051;SDS011;41919;42.648;23.384;2022-07-22T02:43:54;4.75;;;3.78;;
56051;SDS011;41919;42.648;23.384;2022-07-22T02:46:21;5.80;;;3.80;;
56051;SDS011;41919;42.648;23.384;2022-07-22T02:48:50;4.78;;;3.95;;
56051;SDS011;41919;42.648;23.384;2022-07-22T02:51:15;6.57;;;4.78;;
56051;SDS011;41919;42.648;23.384;2022-07-22T02:53:41;4.80;;;4.05;;
56051;SDS011;41919;42.648;23.384;2022-07-22T02:56:06;5.07;;;3.88;;
56051;SDS011;41919;42.648;23.384;2022-07-22T02:58:33;4.30;;;3.80;;
56051;SDS011;41919;42.648;23.384;2022-07-22T03:00:58;5.32;;;4.25;;
56051;SDS011;41919;42.648;23.384;2022-07-22T03:03:24;5.57;;;3.90;;
56051;SDS011;41919;42.648;23.384;2022-07-22T03:05:49;4.55;;;3.80;;
56051;SDS011;41919;42.648;23.384;2022-07-22T03:08:15;4.03;;;3.60;;
56051;SDS011;41919;42.648;23.384;2022-07-22T03:10:40;6.75;;;3.75;;
56051;SDS011;41919;42.648;23.384;2022-07-22T03:13:06;7.93;;;3.60;;
56051;SDS011;41919;42.648;23.384;2022-07-22T03:15:32;15.90;;;4.25;;
56051;SDS011;41919;42.648;23.384;2022-07-22T03:17:57;4.38;;;3.72;;
56051;SDS011;41919;42.648;23.384;2022-07-22T03:20:23;7.22;;;5.18;;
56051;SDS011;41919;42.648;23.384;2022-07-22T03:22:48;10.07;;;4.00;;
56051;SDS011;41919;42.648;23.384;2022-07-22T03:25:13;6.85;;;4.65;;
56051;SDS011;41919;42.648;23.384;2022-07-22T03:27:39;6.60;;;4.18;;
56051;SDS011;41919;42.648;23.384;2022-07-22T03:30:05;6.95;;;4.57;;
56051;SDS011;41919;42.648;23.384;2022-07-22T03:32:31;10.23;;;4.32;;
56051;SDS011;41919;42.648;23.384;2022-07-22T03:34:56;4.97;;;4.47;;
56051;SDS011;41919;42.648;23.384;2022-07-22T03:37:22;7.20;;;4.00;;
56051;SDS011;41919;42.648;23.384;2022-07-22T03:39:47;7.05;;;4.28;;
56051;SDS011;41919;42.648;23.384;2022-07-22T03:42:13;6.05;;;3.90;;
56051;SDS011;41919;42.648;23.384;2022-07-22T03:44:38;8.88;;;4.45;;
56051;SDS011;41919;42.648;23.384;2022-07-22T03:47:04;6.15;;;4.25;;
56051;SDS011;41919;42.648;23.384;2022-07-22T03:49:30;4.63;;;3.70;;
56051;SDS011;41919;42.648;23.384;2022-07-22T03:51:55;5.32;;;3.70;;
56051;SDS011;41919;42.648;23.384;2022-07-22T03:54:21;5.00;;;4.00;;
56051;SDS011;41919;42.648;23.384;2022-07-22T03:56:46;7.63;;;3.83;;
56051;SDS011;41919;42.648;23.384;2022-07-22T03:59:12;8.68;;;4.43;;
56051;SDS011;41919;42.648;23.384;2022-07-22T04:01:37;6.40;;;4.32;;
56051;SDS011;41919;42.648;23.384;2022-07-22T04:04:03;6.30;;;4.00;;
56051;SDS011;41919;42.648;23.384;2022-07-22T04:06:29;9.35;;;4.13;;
56051;SDS011;41919;42.648;23.384;2022-07-22T04:08:54;4.32;;;3.90;;
56051;SDS011;41919;42.648;23.384;2022-07-22T04:11:20;7.10;;;4.55;;
56051;SDS011;41919;42.648;23.384;2022-07-22T04:13:46;8.60;;;4.00;;
56051;SDS011;41919;42.648;23.384;2022-07-22T04:16:11;6.53;;;4.18;;
56051;SDS011;41919;42.648;23.384;2022-07-22T04:18:37;6.57;;;4.55;;
56051;SDS011;41919;42.648;23.384;2022-07-22T04:21:02;6.05;;;4.45;;
56051;SDS011;41919;42.648;23.384;2022-07-22T04:23:28;5.47;;;3.88;;
56051;SDS011;41919;42.648;23.384;2022-07-22T04:25:54;4.63;;;3.92;;
56051;SDS011;41919;42.648;23.384;2022-07-22T04:28:19;4.30;;;3.83;;
56051;SDS011;41919;42.648;23.384;2022-07-22T04:30:45;5.32;;;3.90;;
56051;SDS011;41919;42.648;23.384;2022-07-22T04:33:10;10.73;;;4.47;;
56051;SDS011;41919;42.648;23.384;2022-07-22T04:35:36;4.50;;;4.05;;
56051;SDS011;41919;42.648;23.384;2022-07-22T04:38:01;6.10;;;3.90;;
56051;SDS011;41919;42.648;23.384;2022-07-22T04:40:27;5.55;;;4.30;;
56051;SDS011;41919;42.648;23.384;2022-07-22T04:42:52;5.78;;;4.38;;
56051;SDS011;41919;42.648;23.384;2022-07-22T04:45:18;6.88;;;4.70;;
56051;SDS011;41919;42.648;23.384;2022-07-22T04:47:43;6.63;;;4.20;;
56051;SDS011;41919;42.648;23.384;2022-07-22T04:50:09;5.80;;;4.53;;
56051;SDS011;41919;42.648;23.384;2022-07-22T04:52:34;10.07;;;5.03;;
56051;SDS011;41919;42.648;23.384;2022-07-22T04:55:00;9.25;;;5.38;;
56051;SDS011;41919;42.648;23.384;2022-07-22T04:57:25;6.28;;;5.22;;
56051;SDS011;41919;42.648;23.384;2022-07-22T04:59:51;6.65;;;5.03;;
56051;SDS011;41919;42.648;23.384;2022-07-22T05:02:17;10.90;;;6.00;;
56051;SDS011;41919;42.648;23.384;2022-07-22T05:04:43;10.00;;;6.03;;
56051;SDS011;41919;42.648;23.384;2022-07-22T05:07:08;10.93;;;5.43;;
56051;SDS011;41919;42.648;23.384;2022-07-22T05:09:34;6.45;;;5.38;;
56051;SDS011;41919;42.648;23.384;2022-07-22T05:11:59;8.02;;;5.35;;
56051;SDS011;41919;42.648;23.384;2022-07-22T05:14:25;8.75;;;5.35;;
56051;SDS011;41919;42.648;23.384;2022-07-22T05:16:50;7.18;;;5.68;;
56051;SDS011;41919;42.648;23.384;2022-07-22T05:19:16;8.27;;;5.50;;
56051;SDS011;41919;42.648;23.384;2022-07-22T05:21:41;7.78;;;5.53;;
56051;SDS011;41919;42.648;23.384;2022-07-22T05:24:07;8.80;;;6.03;;
56051;SDS011;41919;42.648;23.384;2022-07-22T05:26:32;7.70;;;5.45;;
56051;SDS011;41919;42.648;23.384;2022-07-22T05:28:58;10.90;;;5.93;;
56051;SDS011;41919;42.648;23.384;2022-07-22T05:31:24;12.00;;;6.50;;
56051;SDS011;41919;42.648;23.384;2022-07-22T05:33:49;8.38;;;5.45;;
56051;SDS011;41919;42.648;23.384;2022-07-22T05:36:15;6.75;;;5.45;;
56051;SDS011;41919;42.648;23.384;2022-07-22T05:38:41;11.05;;;6.38;;
56051;SDS011;41919;42.648;23.384;2022-07-22T05:41:06;12.27;;;6.07;;
56051;SDS011;41919;42.648;23.384;2022-07-22T05:43:32;10.20;;;6.05;;
56051;SDS011;41919;42.648;23.384;2022-07-22T05:45:57;7.72;;;6.20;;
56051;SDS011;41919;42.648;23.384;2022-07-22T05:48:23;11.35;;;6.43;;
56051;SDS011;41919;42.648;23.384;2022-07-22T05:50:48;9.60;;;5.30;;
56051;SDS011;41919;42.648;23.384;2022-07-22T05:53:13;6.53;;;5.50;;
56051;SDS011;41919;42.648;23.384;2022-07-22T05:55:39;8.55;;;5.25;;
56051;SDS011;41919;42.648;23.384;2022-07-22T05:58:04;9.85;;;5.40;;
56051;SDS011;41919;42.648;23.384;2022-07-22T06:00:30;8.55;;;5.40;;
56051;SDS011;41919;42.648;23.384;2022-07-22T06:02:55;9.30;;;5.60;;
56051;SDS011;41919;42.648;23.384;2022-07-22T06:05:21;10.10;;;5.60;;
56051;SDS011;41919;42.648;23.384;2022-07-22T06:07:47;8.82;;;5.18;;
56051;SDS011;41919;42.648;23.384;2022-07-22T06:10:13;8.60;;;5.40;;
56051;SDS011;41919;42.648;23.384;2022-07-22T06:12:39;12.20;;;5.43;;
56051;SDS011;41919;42.648;23.384;2022-07-22T06:15:05;12.70;;;6.47;;
56051;SDS011;41919;42.648;23.384;2022-07-22T06:17:31;13.63;;;5.93;;
56051;SDS011;41919;42.648;23.384;2022-07-22T06:19:57;11.57;;;5.60;;
56051;SDS011;41919;42.648;23.384;2022-07-22T06:22:22;6.85;;;5.57;;
56051;SDS011;41919;42.648;23.384;2022-07-22T06:24:48;10.45;;;5.13;;
56051;SDS011;41919;42.648;23.384;2022-07-22T06:27:14;7.20;;;5.22;;
56051;SDS011;41919;42.648;23.384;2022-07-22T06:29:39;7.32;;;5.15;;
56051;SDS011;41919;42.648;23.384;2022-07-22T06:32:06;7.38;;;5.38;;
56051;SDS011;41919;42.648;23.384;2022-07-22T06:34:32;9.00;;;5.25;;
56051;SDS011;41919;42.648;23.384;2022-07-22T06:36:58;10.90;;;5.88;;
56051;SDS011;41919;42.648;23.384;2022-07-22T06:39:23;11.23;;;6.05;;
56051;SDS011;41919;42.648;23.384;2022-07-22T06:41:49;9.88;;;5.80;;
56051;SDS011;41919;42.648;23.384;2022-07-22T06:44:14;10.23;;;5.25;;
56051;SDS011;41919;42.648;23.384;2022-07-22T06:46:40;9.65;;;5.82;;
56051;SDS011;41919;42.648;23.384;2022-07-22T06:49:05;12.55;;;6.22;;
56051;SDS011;41919;42.648;23.384;2022-07-22T06:51:31;8.25;;;5.63;;
56051;SDS011;41919;42.648;23.384;2022-07-22T06:53:57;12.02;;;5.97;;
56051;SDS011;41919;42.648;23.384;2022-07-22T06:56:22;13.82;;;6.47;;
56051;SDS011;41919;42.648;23.384;2022-07-22T06:58:48;14.73;;;6.32;;
56051;SDS011;41919;42.648;23.384;2022-07-22T07:01:13;10.63;;;6.47;;
56051;SDS011;41919;42.648;23.384;2022-07-22T07:03:39;9.20;;;6.32;;
56051;SDS011;41919;42.648;23.384;2022-07-22T07:06:06;10.98;;;6.13;;
56051;SDS011;41919;42.648;23.384;2022-07-22T07:08:36;10.75;;;5.72;;
56051;SDS011;41919;42.648;23.384;2022-07-22T07:11:01;14.95;;;5.32;;
56051;SDS011;41919;42.648;23.384;2022-07-22T07:13:27;9.23;;;5.47;;
56051;SDS011;41919;42.648;23.384;2022-07-22T07:15:52;11.70;;;5.32;;
56051;SDS011;41919;42.648;23.384;2022-07-22T07:18:18;11.30;;;5.13;;
56051;SDS011;41919;42.648;23.384;2022-07-22T07:20:43;8.38;;;4.53;;
56051;SDS011;41919;42.648;23.384;2022-07-22T07:23:08;7.25;;;4.15;;
56051;SDS011;41919;42.648;23.384;2022-07-22T07:25:34;12.20;;;4.68;;
56051;SDS011;41919;42.648;23.384;2022-07-22T07:27:59;11.63;;;4.75;;
56051;SDS011;41919;42.648;23.384;2022-07-22T07:30:25;6.07;;;4.80;;
56051;SDS011;41919;42.648;23.384;2022-07-22T07:32:50;7.75;;;4.65;;
56051;SDS011;41919;42.648;23.384;2022-07-22T07:35:16;9.45;;;4.47;;
56051;SDS011;41919;42.648;23.384;2022-07-22T07:37:41;10.52;;;4.28;;
56051;SDS011;41919;42.648;23.384;2022-07-22T07:40:07;9.00;;;4.43;;
56051;SDS011;41919;42.648;23.384;2022-07-22T07:42:34;8.30;;;4.68;;
56051;SDS011;41919;42.648;23.384;2022-07-22T07:45:00;6.00;;;4.07;;
56051;SDS011;41919;42.648;23.384;2022-07-22T07:47:25;6.20;;;4.47;;
56051;SDS011;41919;42.648;23.384;2022-07-22T07:49:51;10.35;;;4.38;;
56051;SDS011;41919;42.648;23.384;2022-07-22T07:52:17;6.68;;;3.92;;
56051;SDS011;41919;42.648;23.384;2022-07-22T07:54:42;8.35;;;4.20;;
56051;SDS011;41919;42.648;23.384;2022-07-22T07:57:09;21.08;;;5.15;;
56051;SDS011;41919;42.648;23.384;2022-07-22T07:59:36;6.32;;;4.07;;
56051;SDS011;41919;42.648;23.384;2022-07-22T08:02:02;5.28;;;4.13;;
56051;SDS011;41919;42.648;23.384;2022-07-22T08:04:28;4.60;;;3.53;;
56051;SDS011;41919;42.648;23.384;2022-07-22T08:06:54;5.88;;;3.70;;
56051;SDS011;41919;42.648;23.384;2022-07-22T08:09:19;6.28;;;3.88;;
56051;SDS011;41919;42.648;23.384;2022-07-22T08:11:45;6.07;;;3.75;;
56051;SDS011;41919;42.648;23.384;2022-07-22T08:14:11;4.47;;;3.47;;
56051;SDS011;41919;42.648;23.384;2022-07-22T08:16:36;12.20;;;3.88;;
56051;SDS011;41919;42.648;23.384;2022-07-22T08:19:02;8.20;;;4.03;;
56051;SDS011;41919;42.648;23.384;2022-07-22T08:21:28;5.93;;;3.40;;
56051;SDS011;41919;42.648;23.384;2022-07-22T08:23:53;7.90;;;3.38;;
56051;SDS011;41919;42.648;23.384;2022-07-22T08:26:18;6.78;;;3.55;;
56051;SDS011;41919;42.648;23.384;2022-07-22T08:28:44;7.07;;;3.80;;
56051;SDS011;41919;42.648;23.384;2022-07-22T08:31:10;5.95;;;3.33;;
56051;SDS011;41919;42.648;23.384;2022-07-22T08:33:36;8.07;;;3.65;;
56051;SDS011;41919;42.648;23.384;2022-07-22T08:36:02;7.47;;;4.18;;
56051;SDS011;41919;42.648;23.384;2022-07-22T08:38:27;5.18;;;3.38;;
56051;SDS011;41919;42.648;23.384;2022-07-22T08:40:56;4.68;;;3.40;;
56051;SDS011;41919;42.648;23.384;2022-07-22T08:43:22;5.45;;;4.32;;
56051;SDS011;41919;42.648;23.384;2022-07-22T08:45:48;6.07;;;3.70;;
56051;SDS011;41919;42.648;23.384;2022-07-22T08:48:14;4.65;;;3.50;;
56051;SDS011;41919;42.648;23.384;2022-07-22T08:50:40;5.25;;;3.35;;
56051;SDS011;41919;42.648;23.384;2022-07-22T08:53:10;6.55;;;3.80;;
56051;SDS011;41919;42.648;23.384;2022-07-22T08:55:43;6.85;;;3.80;;
56051;SDS011;41919;42.648;23.384;2022-07-22T08:58:09;7.88;;;3.97;;
56051;SDS011;41919;42.648;23.384;2022-07-22T09:00:35;8.90;;;3.75;;
56051;SDS011;41919;42.648;23.384;2022-07-22T09:03:03;8.60;;;3.67;;
56051;SDS011;41919;42.648;23.384;2022-07-22T09:05:52;3.75;;;3.33;;
56051;SDS011;41919;42.648;23.384;2022-07-22T09:08:19;4.88;;;3.35;;
56051;SDS011;41919;42.648;23.384;2022-07-22T09:10:45;7.25;;;3.95;;
56051;SDS011;41919;42.648;23.384;2022-07-22T09:13:11;6.30;;;3.65;;
56051;SDS011;41919;42.648;23.384;2022-07-22T09:15:39;10.57;;;3.70;;
56051;SDS011;41919;42.648;23.384;2022-07-22T09:18:20;5.90;;;3.20;;
56051;SDS011;41919;42.648;23.384;2022-07-22T09:20:46;4.72;;;3.63;;
56051;SDS011;41919;42.648;23.384;2022-07-22T09:23:16;3.50;;;3.20;;
56051;SDS011;41919;42.648;23.384;2022-07-22T09:25:47;5.53;;;3.53;;
56051;SDS011;41919;42.648;23.384;2022-07-22T09:28:14;4.57;;;3.63;;
56051;SDS011;41919;42.648;23.384;2022-07-22T09:30:46;5.32;;;3.63;;
56051;SDS011;41919;42.648;23.384;2022-07-22T09:33:11;9.50;;;4.15;;
56051;SDS011;41919;42.648;23.384;2022-07-22T09:35:37;7.40;;;3.38;;
56051;SDS011;41919;42.648;23.384;2022-07-22T09:38:05;6.07;;;3.70;;
56051;SDS011;41919;42.648;23.384;2022-07-22T09:40:39;5.53;;;4.18;;
56051;SDS011;41919;42.648;23.384;2022-07-22T09:43:08;5.70;;;3.97;;
56051;SDS011;41919;42.648;23.384;2022-07-22T09:45:45;6.30;;;4.18;;
56051;SDS011;41919;42.648;23.384;2022-07-22T09:48:12;4.53;;;3.38;;
56051;SDS011;41919;42.648;23.384;2022-07-22T09:50:39;6.63;;;3.60;;
56051;SDS011;41919;42.648;23.384;2022-07-22T09:53:05;7.43;;;3.38;;
56051;SDS011;41919;42.648;23.384;2022-07-22T09:55:30;4.85;;;3.33;;
56051;SDS011;41919;42.648;23.384;2022-07-22T09:57:58;4.28;;;3.22;;
56051;SDS011;41919;42.648;23.384;2022-07-22T10:00:25;5.57;;;4.00;;
56051;SDS011;41919;42.648;23.384;2022-07-22T10:02:57;5.75;;;2.90;;
56051;SDS011;41919;42.648;23.384;2022-07-22T10:05:28;4.35;;;3.60;;
56051;SDS011;41919;42.648;23.384;2022-07-22T10:07:55;5.55;;;3.28;;
56051;SDS011;41919;42.648;23.384;2022-07-22T10:10:24;6.50;;;3.92;;
56051;SDS011;41919;42.648;23.384;2022-07-22T10:12:52;4.90;;;3.70;;
56051;SDS011;41919;42.648;23.384;2022-07-22T10:15:19;5.93;;;3.83;;
56051;SDS011;41919;42.648;23.384;2022-07-22T10:17:46;5.15;;;3.33;;
56051;SDS011;41919;42.648;23.384;2022-07-22T10:20:21;9.52;;;3.88;;
56051;SDS011;41919;42.648;23.384;2022-07-22T10:22:50;7.35;;;3.83;;
56051;SDS011;41919;42.648;23.384;2022-07-22T10:25:18;5.38;;;3.83;;
56051;SDS011;41919;42.648;23.384;2022-07-22T10:27:55;5.18;;;3.70;;
56051;SDS011;41919;42.648;23.384;2022-07-22T10:30:31;7.97;;;3.55;;
56051;SDS011;41919;42.648;23.384;2022-07-22T10:33:12;7.57;;;3.80;;
56051;SDS011;41919;42.648;23.384;2022-07-22T10:38:11;6.28;;;3.80;;
56051;SDS011;41919;42.648;23.384;2022-07-22T10:46:07;5.78;;;3.70;;
56051;SDS011;41919;42.648;23.384;2022-07-22T10:51:08;4.35;;;3.92;;
56051;SDS011;41919;42.648;23.384;2022-07-22T10:53:59;6.97;;;4.00;;
56051;SDS011;41919;42.648;23.384;2022-07-22T10:56:27;5.60;;;3.50;;
56051;SDS011;41919;42.648;23.384;2022-07-22T10:59:11;9.90;;;3.60;;
56051;SDS011;41919;42.648;23.384;2022-07-22T11:01:39;4.53;;;3.42;;
56051;SDS011;41919;42.648;23.384;2022-07-22T11:04:19;8.65;;;3.72;;
56051;SDS011;41919;42.648;23.384;2022-07-22T11:06:48;7.50;;;3.88;;
56051;SDS011;41919;42.648;23.384;2022-07-22T11:09:15;5.03;;;3.97;;
56051;SDS011;41919;42.648;23.384;2022-07-22T11:11:44;7.53;;;3.97;;
56051;SDS011;41919;42.648;23.384;2022-07-22T11:14:13;4.95;;;3.95;;
56051;SDS011;41919;42.648;23.384;2022-07-22T11:16:40;6.40;;;4.50;;
56051;SDS011;41919;42.648;23.384;2022-07-22T11:19:05;6.80;;;3.75;;
56051;SDS011;41919;42.648;23.384;2022-07-22T11:21:32;8.70;;;4.13;;
56051;SDS011;41919;42.648;23.384;2022-07-22T11:23:59;6.32;;;3.80;;
56051;SDS011;41919;42.648;23.384;2022-07-22T11:26:37;10.90;;;4.20;;
56051;SDS011;41919;42.648;23.384;2022-07-22T11:29:06;9.10;;;4.03;;
56051;SDS011;41919;42.648;23.384;2022-07-22T11:31:32;5.80;;;3.97;;
56051;SDS011;41919;42.648;23.384;2022-07-22T11:34:04;6.32;;;4.35;;
56051;SDS011;41919;42.648;23.384;2022-07-22T11:36:35;5.97;;;3.90;;
56051;SDS011;41919;42.648;23.384;2022-07-22T11:39:02;5.38;;;4.00;;
56051;SDS011;41919;42.648;23.384;2022-07-22T11:41:29;4.55;;;4.15;;
56051;SDS011;41919;42.648;23.384;2022-07-22T11:43:56;7.18;;;4.22;;
56051;SDS011;41919;42.648;23.384;2022-07-22T11:46:23;5.40;;;3.80;;
56051;SDS011;41919;42.648;23.384;2022-07-22T11:48:50;7.95;;;4.05;;
56051;SDS011;41919;42.648;23.384;2022-07-22T11:51:16;9.77;;;4.38;;
56051;SDS011;41919;42.648;23.384;2022-07-22T11:53:42;7.47;;;4.53;;
56051;SDS011;41919;42.648;23.384;2022-07-22T11:56:08;6.22;;;3.60;;
56051;SDS011;41919;42.648;23.384;2022-07-22T11:58:44;6.68;;;3.80;;
56051;SDS011;41919;42.648;23.384;2022-07-22T12:01:12;7.63;;;3.50;;
56051;SDS011;41919;42.648;23.384;2022-07-22T12:03:40;5.07;;;3.38;;
56051;SDS011;41919;42.648;23.384;2022-07-22T12:06:12;5.50;;;3.53;;
56051;SDS011;41919;42.648;23.384;2022-07-22T12:08:40;8.30;;;3.40;;
56051;SDS011;41919;42.648;23.384;2022-07-22T12:11:08;7.25;;;3.60;;
56051;SDS011;41919;42.648;23.384;2022-07-22T12:13:35;6.15;;;3.60;;
56051;SDS011;41919;42.648;23.384;2022-07-22T12:16:18;7.63;;;4.05;;
56051;SDS011;41919;42.648;23.384;2022-07-22T12:18:50;5.03;;;3.40;;
56051;SDS011;41919;42.648;23.384;2022-07-22T12:21:28;5.68;;;3.80;;
56051;SDS011;41919;42.648;23.384;2022-07-22T12:26:35;4.43;;;3.30;;
56051;SDS011;41919;42.648;23.384;2022-07-22T12:29:22;5.60;;;3.90;;
56051;SDS011;41919;42.648;23.384;2022-07-22T12:34:38;7.15;;;3.63;;
56051;SDS011;41919;42.648;23.384;2022-07-22T12:42:46;4.47;;;3.40;;
56051;SDS011;41919;42.648;23.384;2022-07-22T12:45:25;4.15;;;3.30;;
56051;SDS011;41919;42.648;23.384;2022-07-22T12:47:52;5.63;;;3.13;;
56051;SDS011;41919;42.648;23.384;2022-07-22T12:55:29;5.43;;;3.03;;
56051;SDS011;41919;42.648;23.384;2022-07-22T12:57:56;5.72;;;3.00;;
56051;SDS011;41919;42.648;23.384;2022-07-22T13:00:24;5.43;;;2.75;;
56051;SDS011;41919;42.648;23.384;2022-07-22T13:02:53;3.85;;;2.97;;
56051;SDS011;41919;42.648;23.384;2022-07-22T13:05:20;5.30;;;3.72;;
56051;SDS011;41919;42.648;23.384;2022-07-22T13:07:47;3.35;;;3.05;;
56051;SDS011;41919;42.648;23.384;2022-07-22T13:10:13;5.13;;;3.30;;
56051;SDS011;41919;42.648;23.384;2022-07-22T13:12:39;5.07;;;3.08;;
56051;SDS011;41919;42.648;23.384;2022-07-22T13:15:05;3.40;;;2.97;;
56051;SDS011;41919;42.648;23.384;2022-07-22T13:17:31;8.90;;;4.25;;
56051;SDS011;41919;42.648;23.384;2022-07-22T13:19:57;6.55;;;3.38;;
56051;SDS011;41919;42.648;23.384;2022-07-22T13:22:23;5.30;;;2.95;;
56051;SDS011;41919;42.648;23.384;2022-07-22T13:24:48;4.25;;;2.72;;
56051;SDS011;41919;42.648;23.384;2022-07-22T13:27:14;3.47;;;3.05;;
56051;SDS011;41919;42.648;23.384;2022-07-22T13:29:40;6.30;;;3.75;;
56051;SDS011;41919;42.648;23.384;2022-07-22T13:32:06;5.63;;;2.67;;
56051;SDS011;41919;42.648;23.384;2022-07-22T13:34:31;6.55;;;3.22;;
56051;SDS011;41919;42.648;23.384;2022-07-22T13:36:57;18.83;;;3.53;;
56051;SDS011;41919;42.648;23.384;2022-07-22T13:39:22;5.03;;;2.83;;
56051;SDS011;41919;42.648;23.384;2022-07-22T13:41:49;4.72;;;3.17;;
56051;SDS011;41919;42.648;23.384;2022-07-22T13:44:14;7.72;;;3.33;;
56051;SDS011;41919;42.648;23.384;2022-07-22T13:46:41;6.35;;;3.35;;
56051;SDS011;41919;42.648;23.384;2022-07-22T13:49:06;4.57;;;2.88;;
56051;SDS011;41919;42.648;23.384;2022-07-22T13:51:32;5.25;;;3.15;;
56051;SDS011;41919;42.648;23.384;2022-07-22T13:53:57;5.75;;;3.33;;
56051;SDS011;41919;42.648;23.384;2022-07-22T13:56:23;9.77;;;3.60;;
56051;SDS011;41919;42.648;23.384;2022-07-22T13:58:48;9.55;;;3.10;;
56051;SDS011;41919;42.648;23.384;2022-07-22T14:01:14;5.30;;;2.70;;
56051;SDS011;41919;42.648;23.384;2022-07-22T14:03:39;5.10;;;2.90;;
56051;SDS011;41919;42.648;23.384;2022-07-22T14:06:05;3.70;;;2.88;;
56051;SDS011;41919;42.648;23.384;2022-07-22T14:08:31;7.72;;;3.05;;
56051;SDS011;41919;42.648;23.384;2022-07-22T14:10:57;4.88;;;2.88;;
56051;SDS011;41919;42.648;23.384;2022-07-22T14:13:23;3.35;;;3.05;;
56051;SDS011;41919;42.648;23.384;2022-07-22T14:15:48;3.30;;;3.00;;
56051;SDS011;41919;42.648;23.384;2022-07-22T14:18:14;5.55;;;3.55;;
56051;SDS011;41919;42.648;23.384;2022-07-22T14:20:39;7.53;;;3.20;;
56051;SDS011;41919;42.648;23.384;2022-07-22T14:23:05;4.93;;;2.92;;
56051;SDS011;41919;42.648;23.384;2022-07-22T14:25:34;3.55;;;2.78;;
56051;SDS011;41919;42.648;23.384;2022-07-22T14:28:01;6.28;;;3.33;;
56051;SDS011;41919;42.648;23.384;2022-07-22T14:30:26;5.35;;;3.53;;
56051;SDS011;41919;42.648;23.384;2022-07-22T14:32:53;3.88;;;2.90;;
56051;SDS011;41919;42.648;23.384;2022-07-22T14:35:19;8.55;;;3.17;;
56051;SDS011;41919;42.648;23.384;2022-07-22T14:37:44;4.95;;;3.00;;
56051;SDS011;41919;42.648;23.384;2022-07-22T14:40:10;4.38;;;3.15;;
56051;SDS011;41919;42.648;23.384;2022-07-22T14:42:36;4.35;;;3.20;;
56051;SDS011;41919;42.648;23.384;2022-07-22T14:45:01;3.28;;;2.85;;
56051;SDS011;41919;42.648;23.384;2022-07-22T14:47:27;3.20;;;2.90;;
56051;SDS011;41919;42.648;23.384;2022-07-22T14:49:53;4.45;;;2.90;;
56051;SDS011;41919;42.648;23.384;2022-07-22T14:52:18;5.35;;;2.97;;
56051;SDS011;41919;42.648;23.384;2022-07-22T14:54:44;8.18;;;3.42;;
56051;SDS011;41919;42.648;23.384;2022-07-22T14:57:09;3.70;;;2.78;;